createdAt,value
2022-11-26T00:01:39.535Z,3.20
2022-11-26T00:04:14.238Z,3.20
2022-11-26T00:06:47.760Z,3.20
2022-11-26T00:09:22.110Z,3.20
2022-11-26T00:11:55.557Z,3.20
2022-11-26T00:14:31.817Z,3.20
2022-11-26T00:17:08.529Z,3.30
2022-11-26T00:19:42.738Z,3.30
2022-11-26T00:22:18.341Z,3.30
2022-11-26T00:24:52.451Z,3.40
2022-11-26T00:27:27.940Z,3.40
2022-11-26T00:30:01.743Z,3.40
2022-11-26T00:32:38.409Z,3.40
2022-11-26T00:35:12.536Z,3.40
2022-11-26T00:37:47.140Z,3.40
2022-11-26T00:40:21.836Z,3.50
2022-11-26T00:43:01.218Z,3.50
2022-11-26T00:45:35.550Z,3.50
2022-11-26T00:48:12.293Z,3.60
2022-11-26T00:50:46.966Z,4.40
2022-11-26T00:53:20.760Z,3.70
2022-11-26T00:55:54.677Z,3.70
2022-11-26T00:58:28.828Z,3.70
2022-11-26T01:01:02.609Z,3.80
2022-11-26T01:03:43.082Z,3.80
2022-11-26T01:06:16.886Z,3.90
2022-11-26T01:08:50.438Z,3.90
2022-11-26T01:11:25.053Z,3.90
2022-11-26T01:13:59.543Z,3.90
2022-11-26T01:16:34.396Z,4.00
2022-11-26T01:19:11.933Z,4.00
2022-11-26T01:21:45.554Z,4.00
2022-11-26T01:24:20.134Z,4.00
2022-11-26T01:26:54.343Z,4.00
2022-11-26T01:29:28.465Z,4.10
2022-11-26T01:32:02.560Z,4.10
2022-11-26T01:34:40.046Z,4.10
2022-11-26T01:37:15.510Z,4.10
2022-11-26T01:39:49.912Z,4.20
2022-11-26T01:42:26.062Z,4.20
2022-11-26T01:44:59.628Z,4.20
2022-11-26T01:47:33.949Z,4.20
2022-11-26T01:50:22.488Z,4.30
2022-11-26T01:52:59.584Z,4.30
2022-11-26T01:55:34.465Z,4.30
2022-11-26T01:58:08.946Z,4.30
2022-11-26T02:00:42.606Z,4.30
2022-11-26T02:03:18.857Z,4.30
2022-11-26T02:05:54.443Z,4.30
2022-11-26T02:08:32.533Z,4.30
2022-11-26T02:11:06.212Z,4.30
2022-11-26T02:13:40.541Z,4.30
2022-11-26T02:16:15.243Z,4.40
2022-11-26T02:18:48.711Z,4.40
2022-11-26T02:21:23.691Z,4.40
2022-11-26T02:24:12.328Z,4.50
2022-11-26T02:26:51.052Z,4.50
2022-11-26T02:29:25.670Z,4.50
2022-11-26T02:32:02.739Z,4.50
2022-11-26T02:34:38.115Z,4.50
2022-11-26T02:37:11.143Z,4.50
2022-11-26T02:39:45.264Z,4.50
2022-11-26T02:42:49.593Z,4.50
2022-11-26T02:45:23.941Z,4.50
2022-11-26T02:48:00.830Z,4.50
2022-11-26T02:50:35.797Z,4.50
2022-11-26T02:53:42.675Z,4.50
2022-11-26T02:56:23.252Z,4.50
2022-11-26T02:58:55.756Z,4.50
2022-11-26T03:02:01.841Z,4.50
2022-11-26T03:04:40.833Z,4.50
2022-11-26T03:07:13.647Z,4.50
2022-11-26T03:09:53.154Z,4.50
2022-11-26T03:12:26.478Z,4.50
2022-11-26T03:15:00.450Z,4.50
2022-11-26T03:17:34.434Z,4.50
2022-11-26T03:20:12.538Z,4.50
2022-11-26T03:22:46.778Z,4.50
2022-11-26T03:25:20.830Z,4.60
2022-11-26T03:27:55.594Z,4.60
2022-11-26T03:30:29.438Z,4.50
2022-11-26T03:33:21.117Z,4.50
2022-11-26T03:35:57.068Z,4.60
2022-11-26T03:38:30.548Z,4.60
2022-11-26T03:41:05.603Z,4.60
2022-11-26T03:43:39.629Z,4.60
2022-11-26T03:46:13.660Z,4.60
2022-11-26T03:48:47.650Z,4.60
2022-11-26T03:51:24.328Z,4.60
2022-11-26T03:53:59.021Z,4.60
2022-11-26T03:56:33.025Z,4.60
2022-11-26T03:59:07.976Z,4.60
2022-11-26T04:01:41.660Z,4.60
2022-11-26T04:04:15.871Z,4.60
2022-11-26T04:06:52.681Z,4.80
2022-11-26T04:09:26.412Z,4.80
2022-11-26T04:11:57.638Z,4.80
2022-11-26T04:14:31.565Z,4.80
2022-11-26T04:17:07.134Z,4.80
2022-11-26T04:19:40.531Z,4.80
2022-11-26T04:22:17.683Z,4.90
2022-11-26T04:24:51.462Z,4.80
2022-11-26T04:27:25.751Z,4.80
2022-11-26T04:29:59.396Z,4.80
2022-11-26T04:32:33.668Z,4.80
2022-11-26T04:35:07.955Z,4.80
2022-11-26T04:37:44.437Z,4.80
2022-11-26T04:40:18.876Z,4.80
2022-11-26T04:42:52.436Z,4.80
2022-11-26T04:45:27.518Z,4.80
2022-11-26T04:48:02.075Z,4.80
2022-11-26T04:50:36.684Z,4.90
2022-11-26T04:53:13.310Z,4.90
2022-11-26T04:55:45.386Z,4.90
2022-11-26T04:58:19.691Z,4.90
2022-11-26T05:00:53.622Z,4.90
2022-11-26T05:03:27.686Z,4.90
2022-11-26T05:06:01.699Z,5.00
2022-11-26T05:08:38.051Z,5.00
2022-11-26T05:11:11.769Z,5.00
2022-11-26T05:13:45.551Z,5.00
2022-11-26T05:16:20.260Z,5.00
2022-11-26T05:18:55.084Z,5.00
2022-11-26T05:21:28.769Z,5.00
2022-11-26T05:24:06.375Z,5.10
2022-11-26T05:26:41.072Z,5.10
2022-11-26T05:29:15.356Z,5.10
2022-11-26T05:31:49.778Z,5.10
2022-11-26T05:34:24.045Z,5.10
2022-11-26T05:36:57.582Z,5.10
2022-11-26T05:39:34.360Z,5.10
2022-11-26T05:42:09.524Z,5.10
2022-11-26T05:44:43.740Z,5.10
2022-11-26T05:47:17.391Z,5.10
2022-11-26T05:49:51.911Z,5.10
2022-11-26T05:52:25.860Z,5.20
2022-11-26T05:55:02.554Z,5.20
2022-11-26T05:57:37.059Z,5.20
2022-11-26T06:00:11.600Z,5.20
2022-11-26T06:02:45.805Z,5.20
2022-11-26T06:05:19.460Z,5.30
2022-11-26T06:07:53.770Z,5.30
2022-11-26T06:10:30.263Z,5.30
2022-11-26T06:13:02.476Z,5.30
2022-11-26T06:15:36.799Z,5.30
2022-11-26T06:18:10.645Z,5.30
2022-11-26T06:20:44.542Z,5.30
2022-11-26T06:23:18.572Z,5.40
2022-11-26T06:25:55.680Z,5.30
2022-11-26T06:28:29.470Z,5.40
2022-11-26T06:31:00.504Z,5.40
2022-11-26T06:33:34.698Z,5.40
2022-11-26T06:36:08.601Z,5.40
2022-11-26T06:38:42.545Z,5.40
2022-11-26T06:41:19.329Z,5.40
2022-11-26T06:43:50.836Z,5.40
2022-11-26T06:46:24.673Z,5.40
2022-11-26T06:48:58.480Z,5.50
2022-11-26T06:51:32.700Z,5.50
2022-11-26T06:54:06.729Z,5.50
2022-11-26T06:56:43.543Z,5.50
2022-11-26T06:59:20.453Z,5.50
2022-11-26T07:01:53.545Z,5.50
2022-11-26T07:04:29.170Z,5.50
2022-11-26T07:07:03.225Z,5.50
2022-11-26T07:09:36.956Z,5.50
2022-11-26T07:12:14.272Z,5.50
2022-11-26T07:14:48.766Z,5.50
2022-11-26T07:17:22.758Z,5.60
2022-11-26T07:19:57.247Z,5.60
2022-11-26T07:22:30.582Z,5.60
2022-11-26T07:25:10.827Z,5.60
2022-11-26T07:27:50.714Z,5.60
2022-11-26T07:30:24.969Z,5.70
2022-11-26T07:32:58.471Z,5.70
2022-11-26T07:35:33.918Z,5.70
2022-11-26T07:38:08.055Z,5.70
2022-11-26T07:40:43.312Z,5.70
2022-11-26T07:43:19.128Z,5.70
2022-11-26T07:45:52.944Z,5.80
2022-11-26T07:48:27.454Z,5.70
2022-11-26T07:51:04.703Z,5.80
2022-11-26T07:53:39.528Z,5.80
2022-11-26T07:56:14.126Z,5.90
2022-11-26T07:58:50.742Z,5.90
2022-11-26T08:01:27.475Z,5.90
2022-11-26T08:04:04.675Z,6.00
2022-11-26T08:06:40.531Z,6.10
2022-11-26T08:09:16.420Z,6.10
2022-11-26T08:11:49.349Z,6.10
2022-11-26T08:14:27.603Z,6.20
2022-11-26T08:17:02.792Z,6.20
2022-11-26T08:19:37.893Z,6.30
2022-11-26T08:22:13.308Z,6.30
2022-11-26T08:24:47.637Z,6.40
2022-11-26T08:27:24.258Z,6.40
2022-11-26T08:30:00.125Z,6.50
2022-11-26T08:32:33.967Z,6.50
2022-11-26T08:35:07.961Z,6.50
2022-11-26T08:37:42.748Z,6.60
2022-11-26T08:40:17.738Z,6.60
2022-11-26T08:42:51.790Z,6.70
2022-11-26T08:45:29.988Z,6.70
2022-11-26T08:48:04.592Z,6.70
2022-11-26T08:50:41.612Z,6.80
2022-11-26T08:53:16.198Z,6.80
2022-11-26T08:55:59.986Z,6.80
2022-11-26T08:58:36.277Z,6.90
2022-11-26T09:01:16.375Z,6.90
2022-11-26T09:03:50.498Z,6.90
2022-11-26T09:06:24.960Z,7.20
2022-11-26T09:09:10.871Z,7.30
2022-11-26T09:11:45.403Z,7.30
2022-11-26T09:14:20.278Z,7.40
2022-11-26T09:16:56.740Z,7.40
2022-11-26T09:19:32.148Z,7.40
2022-11-26T09:22:06.463Z,7.40
2022-11-26T09:24:40.689Z,7.40
2022-11-26T09:27:15.803Z,7.40
2022-11-26T09:29:50.124Z,7.40
2022-11-26T09:32:32.589Z,7.40
2022-11-26T09:35:09.420Z,7.40
2022-11-26T09:37:47.339Z,7.40
2022-11-26T09:40:25.461Z,7.40
2022-11-26T09:43:01.489Z,7.40
2022-11-26T09:46:01.673Z,7.40
2022-11-26T09:48:38.683Z,7.40
2022-11-26T09:51:14.607Z,7.50
2022-11-26T09:53:49.693Z,7.40
2022-11-26T09:56:24.469Z,7.40
2022-11-26T09:58:58.070Z,7.40
2022-11-26T10:01:31.746Z,7.30
2022-11-26T10:04:08.803Z,7.40
2022-11-26T10:06:44.379Z,7.30
2022-11-26T10:09:40.887Z,7.30
2022-11-26T10:12:25.023Z,7.30
2022-11-26T10:15:00.847Z,7.30
2022-11-26T10:17:39.633Z,7.30
2022-11-26T10:20:31.630Z,7.50
2022-11-26T10:23:09.397Z,7.30
2022-11-26T10:25:42.861Z,7.30
2022-11-26T10:28:20.032Z,7.20
2022-11-26T10:30:55.279Z,7.20
2022-11-26T10:33:29.522Z,7.10
2022-11-26T10:36:04.355Z,7.40
2022-11-26T10:38:41.546Z,7.10
2022-11-26T10:41:18.816Z,7.10
2022-11-26T10:43:53.219Z,7.10
2022-11-26T10:46:33.660Z,7.10
2022-11-26T10:49:23.257Z,7.10
2022-11-26T10:51:57.447Z,7.00
2022-11-26T10:54:34.022Z,7.00
2022-11-26T10:57:14.278Z,6.90
2022-11-26T10:59:52.463Z,6.90
2022-11-26T11:02:32.059Z,6.80
2022-11-26T11:05:06.087Z,6.80
2022-11-26T11:07:45.426Z,6.80
2022-11-26T11:10:22.227Z,6.80
2022-11-26T11:13:07.089Z,6.80
2022-11-26T11:15:41.446Z,6.80
2022-11-26T11:18:22.191Z,6.80
2022-11-26T11:20:57.711Z,6.70
2022-11-26T11:24:00.309Z,6.70
2022-11-26T11:26:28.636Z,6.60
2022-11-26T11:29:06.223Z,6.50
2022-11-26T11:31:48.808Z,6.50
2022-11-26T11:34:24.327Z,6.50
2022-11-26T11:37:01.294Z,6.50
2022-11-26T11:39:37.624Z,6.50
2022-11-26T11:42:19.310Z,6.50
2022-11-26T11:44:51.750Z,6.50
2022-11-26T11:47:30.990Z,6.40
2022-11-26T11:50:15.747Z,6.40
2022-11-26T11:52:54.508Z,6.40
2022-11-26T11:55:30.482Z,6.40
2022-11-26T11:58:19.330Z,6.50
2022-11-26T12:00:55.830Z,6.40
2022-11-26T12:03:37.931Z,6.50
2022-11-26T12:06:15.309Z,6.50
2022-11-26T12:08:52.308Z,6.50
2022-11-26T12:11:29.606Z,6.50
2022-11-26T12:14:04.505Z,6.50
2022-11-26T12:16:39.802Z,6.50
2022-11-26T12:19:18.271Z,6.50
2022-11-26T12:21:53.396Z,6.60
2022-11-26T12:24:28.245Z,6.60
2022-11-26T12:27:03.011Z,6.60
2022-11-26T12:29:37.544Z,6.60
2022-11-26T12:32:15.595Z,6.60
2022-11-26T12:34:53.281Z,6.70
2022-11-26T12:37:27.561Z,6.70
2022-11-26T12:40:04.205Z,6.80
2022-11-26T12:42:42.058Z,6.80
2022-11-26T12:45:19.012Z,6.80
2022-11-26T12:47:54.247Z,6.80
2022-11-26T12:50:35.321Z,6.80
2022-11-26T12:53:11.606Z,6.80
2022-11-26T12:55:47.066Z,6.80
2022-11-26T12:58:21.737Z,6.80
2022-11-26T13:00:57.159Z,6.80
2022-11-26T13:03:33.561Z,6.80
2022-11-26T13:06:12.387Z,6.80
2022-11-26T13:08:48.462Z,6.80
2022-11-26T13:11:29.191Z,6.80
2022-11-26T13:14:04.798Z,6.80
2022-11-26T13:16:40.230Z,6.80
2022-11-26T13:19:16.517Z,6.70
2022-11-26T13:22:02.345Z,6.70
2022-11-26T13:24:40.733Z,6.70
2022-11-26T13:27:17.917Z,6.70
2022-11-26T13:29:55.450Z,6.70
2022-11-26T13:32:38.822Z,6.70
2022-11-26T13:35:18.939Z,6.70
2022-11-26T13:38:10.656Z,6.70
2022-11-26T13:40:57.397Z,6.70
2022-11-26T13:43:49.753Z,6.70
2022-11-26T13:46:24.439Z,6.70
2022-11-26T13:49:01.171Z,6.80
2022-11-26T13:51:35.870Z,6.80
2022-11-26T13:54:10.729Z,6.80
2022-11-26T13:56:47.688Z,6.80
2022-11-26T13:59:27.998Z,6.80
2022-11-26T14:02:04.088Z,6.80
2022-11-26T14:04:52.861Z,6.80
2022-11-26T14:07:27.876Z,6.80
2022-11-26T14:10:02.508Z,6.80
2022-11-26T14:12:59.113Z,6.80
2022-11-26T14:15:56.587Z,6.80
2022-11-26T14:18:45.840Z,6.80
2022-11-26T14:21:20.217Z,6.80
2022-11-26T14:23:54.602Z,6.90
2022-11-26T14:26:30.827Z,6.90
2022-11-26T14:29:16.831Z,6.90
2022-11-26T14:31:55.089Z,6.80
2022-11-26T14:34:30.602Z,6.80
2022-11-26T14:37:05.589Z,6.80
2022-11-26T14:39:40.302Z,6.80
2022-11-26T14:42:16.541Z,6.80
2022-11-26T14:44:53.080Z,6.80
2022-11-26T14:47:29.638Z,6.80
2022-11-26T14:50:04.362Z,6.80
2022-11-26T14:52:37.194Z,6.80
2022-11-26T14:55:11.994Z,6.80
2022-11-26T14:57:46.317Z,6.80
2022-11-26T15:00:25.967Z,6.80
2022-11-26T15:03:04.477Z,6.80
2022-11-26T15:05:43.652Z,6.70
2022-11-26T15:08:19.644Z,6.70
2022-11-26T15:10:54.563Z,6.70
2022-11-26T15:13:29.363Z,6.70
2022-11-26T15:16:02.547Z,6.70
2022-11-26T15:18:39.923Z,6.70
2022-11-26T15:21:15.988Z,6.70
2022-11-26T15:23:49.553Z,6.70
2022-11-26T15:26:24.360Z,6.70
2022-11-26T15:28:56.539Z,6.70
2022-11-26T15:31:42.092Z,6.60
2022-11-26T15:34:19.185Z,6.70
2022-11-26T15:36:53.007Z,6.70
2022-11-26T15:39:27.502Z,6.70
2022-11-26T15:42:01.914Z,6.70
2022-11-26T15:44:41.991Z,6.70
2022-11-26T15:47:16.888Z,6.70
2022-11-26T15:49:55.204Z,6.60
2022-11-26T15:52:30.808Z,6.60
2022-11-26T15:55:12.425Z,6.60
2022-11-26T15:57:47.158Z,6.50
2022-11-26T16:00:24.869Z,6.50
2022-11-26T16:02:59.189Z,6.50
2022-11-26T16:05:38.542Z,6.50
2022-11-26T16:08:24.958Z,6.50
2022-11-26T16:11:01.559Z,6.50
2022-11-26T16:13:35.922Z,6.50
2022-11-26T16:16:11.110Z,6.50
2022-11-26T16:18:45.154Z,6.50
2022-11-26T16:21:22.511Z,6.50
2022-11-26T16:23:56.813Z,6.40
2022-11-26T16:26:30.875Z,6.40
2022-11-26T16:29:05.539Z,6.40
2022-11-26T16:31:40.462Z,6.40
2022-11-26T16:34:14.551Z,6.40
2022-11-26T16:36:52.127Z,6.40
2022-11-26T16:39:30.045Z,6.40
2022-11-26T16:42:04.788Z,6.40
2022-11-26T16:44:39.381Z,6.40
2022-11-26T16:47:16.075Z,6.40
2022-11-26T16:49:49.613Z,6.40
2022-11-26T16:52:26.616Z,6.40
2022-11-26T16:55:01.107Z,6.30
2022-11-26T16:57:35.340Z,6.30
2022-11-26T17:00:13.471Z,6.40
2022-11-26T17:02:47.959Z,6.30
2022-11-26T17:05:21.708Z,6.30
2022-11-26T17:07:59.271Z,6.30
2022-11-26T17:10:32.057Z,6.30
2022-11-26T17:13:05.658Z,6.40
2022-11-26T17:15:39.871Z,6.40
2022-11-26T17:18:16.197Z,6.40
2022-11-26T17:20:49.657Z,6.40
2022-11-26T17:23:28.570Z,6.40
2022-11-26T17:26:04.100Z,6.40
2022-11-26T17:28:37.709Z,6.40
2022-11-26T17:31:11.567Z,6.40
2022-11-26T17:33:46.081Z,6.40
2022-11-26T17:36:20.192Z,6.40
2022-11-26T17:38:56.808Z,6.30
2022-11-26T17:41:31.435Z,6.30
2022-11-26T17:44:03.696Z,6.30
2022-11-26T17:46:54.482Z,6.30
2022-11-26T17:49:31.837Z,6.30
2022-11-26T17:52:06.427Z,6.30
2022-11-26T17:54:43.356Z,6.20
2022-11-26T17:57:15.868Z,6.30
2022-11-26T17:59:49.965Z,6.20
2022-11-26T18:02:23.732Z,6.20
2022-11-26T18:04:57.891Z,6.20
2022-11-26T18:07:32.054Z,6.20
2022-11-26T18:10:08.717Z,6.90
2022-11-26T18:12:42.877Z,6.20
2022-11-26T18:15:19.473Z,6.20
2022-11-26T18:17:51.938Z,6.10
2022-11-26T18:20:26.655Z,6.10
2022-11-26T18:23:02.369Z,6.00
2022-11-26T18:25:37.648Z,6.00
2022-11-26T18:28:08.973Z,6.00
2022-11-26T18:30:42.709Z,6.00
2022-11-26T18:33:16.800Z,6.00
2022-11-26T18:35:53.405Z,6.00
2022-11-26T18:38:29.189Z,6.00
2022-11-26T18:41:06.883Z,6.00
2022-11-26T18:43:41.343Z,6.00
2022-11-26T18:46:15.757Z,6.00
2022-11-26T18:48:50.023Z,6.00
2022-11-26T18:51:23.612Z,5.90
2022-11-26T18:53:57.778Z,5.90
2022-11-26T18:56:34.656Z,5.90
2022-11-26T18:59:08.546Z,5.90
2022-11-26T19:01:43.768Z,6.20
2022-11-26T19:04:18.696Z,6.30
2022-11-26T19:06:54.361Z,6.40
2022-11-26T19:09:27.412Z,6.70
2022-11-26T19:12:04.220Z,6.30
2022-11-26T19:14:37.993Z,6.40
2022-11-26T19:17:13.818Z,6.40
2022-11-26T19:19:48.118Z,6.30
2022-11-26T19:22:21.839Z,6.30
2022-11-26T19:24:55.987Z,6.30
2022-11-26T19:27:33.020Z,6.30
2022-11-26T19:30:08.187Z,6.20
2022-11-26T19:32:42.176Z,6.20
2022-11-26T19:35:16.426Z,6.20
2022-11-26T19:37:48.782Z,6.30
2022-11-26T19:40:26.670Z,6.20
2022-11-26T19:43:04.018Z,6.20
2022-11-26T19:45:38.374Z,6.10
2022-11-26T19:48:11.662Z,6.20
2022-11-26T19:50:46.772Z,6.10
2022-11-26T19:53:21.488Z,6.10
2022-11-26T19:56:01.900Z,6.10
2022-11-26T19:58:39.170Z,6.10
2022-11-26T20:01:13.599Z,6.00
2022-11-26T20:03:48.546Z,6.00
2022-11-26T20:06:23.495Z,6.10
2022-11-26T20:08:58.547Z,6.10
2022-11-26T20:11:32.786Z,6.10
2022-11-26T20:14:10.890Z,6.10
2022-11-26T20:16:45.637Z,6.10
2022-11-26T20:19:20.300Z,6.10
2022-11-26T20:21:54.239Z,6.00
2022-11-26T20:24:28.324Z,6.00
2022-11-26T20:27:01.048Z,6.10
2022-11-26T20:29:39.094Z,6.20
2022-11-26T20:32:14.903Z,6.00
2022-11-26T20:34:49.587Z,6.00
2022-11-26T20:37:25.358Z,6.00
2022-11-26T20:39:58.062Z,6.00
2022-11-26T20:42:32.572Z,6.10
2022-11-26T20:45:11.448Z,6.00
2022-11-26T20:47:45.930Z,6.00
2022-11-26T20:50:20.873Z,6.00
2022-11-26T20:52:55.396Z,6.00
2022-11-26T20:55:28.616Z,6.00
2022-11-26T20:58:03.434Z,6.00
2022-11-26T21:00:39.467Z,6.00
2022-11-26T21:03:14.274Z,6.00
2022-11-26T21:05:47.977Z,6.00
2022-11-26T21:08:22.314Z,6.00
2022-11-26T21:10:56.028Z,6.00
2022-11-26T21:13:35.214Z,6.00
2022-11-26T21:16:14.355Z,6.00
2022-11-26T21:18:47.102Z,5.90
2022-11-26T21:21:21.527Z,5.90
2022-11-26T21:23:56.867Z,5.90
2022-11-26T21:26:31.432Z,5.90
2022-11-26T21:29:06.833Z,5.90
2022-11-26T21:31:44.677Z,5.90
2022-11-26T21:34:19.896Z,5.80
2022-11-26T21:36:55.054Z,5.80
2022-11-26T21:39:29.545Z,5.90
2022-11-26T21:42:07.568Z,5.90
2022-11-26T21:44:42.649Z,5.90
2022-11-26T21:47:20.686Z,5.80
2022-11-26T21:49:56.845Z,5.80
2022-11-26T21:52:31.284Z,5.80
2022-11-26T21:55:06.745Z,5.80
2022-11-26T21:57:40.756Z,5.80
2022-11-26T22:00:18.392Z,5.80
2022-11-26T22:02:54.032Z,5.80
2022-11-26T22:05:29.946Z,5.80
2022-11-26T22:08:07.353Z,5.90
2022-11-26T22:10:41.721Z,5.90
2022-11-26T22:13:17.696Z,5.80
2022-11-26T22:15:52.851Z,5.90
2022-11-26T22:18:30.635Z,5.80
2022-11-26T22:21:05.892Z,5.80
2022-11-26T22:23:40.263Z,5.80
2022-11-26T22:26:17.169Z,5.80
2022-11-26T22:28:51.717Z,5.80
2022-11-26T22:31:27.806Z,5.80
2022-11-26T22:34:06.851Z,5.80
2022-11-26T22:36:42.128Z,5.80
2022-11-26T22:39:17.602Z,5.80
2022-11-26T22:41:52.151Z,5.80
2022-11-26T22:44:27.511Z,5.70
2022-11-26T22:47:04.521Z,5.80
2022-11-26T22:49:44.012Z,5.80
2022-11-26T22:52:18.570Z,5.80
2022-11-26T22:54:51.885Z,5.80
2022-11-26T22:57:28.889Z,5.80
2022-11-26T23:00:03.300Z,5.80
2022-11-26T23:02:40.386Z,5.80
2022-11-26T23:05:17.704Z,5.80
2022-11-26T23:07:55.006Z,5.80
2022-11-26T23:10:29.155Z,5.80
2022-11-26T23:13:05.648Z,5.80
2022-11-26T23:15:44.697Z,5.80
2022-11-26T23:18:19.690Z,5.70
2022-11-26T23:21:04.696Z,5.70
2022-11-26T23:23:40.525Z,5.70
2022-11-26T23:26:15.932Z,5.70
2022-11-26T23:28:50.038Z,5.70
2022-11-26T23:31:26.827Z,5.70
2022-11-26T23:34:03.741Z,5.70
2022-11-26T23:36:42.455Z,5.60
2022-11-26T23:39:17.636Z,5.60
2022-11-26T23:41:52.816Z,5.60
2022-11-26T23:44:27.162Z,5.50
2022-11-26T23:47:01.349Z,5.60
2022-11-26T23:49:35.579Z,5.50
2022-11-26T23:52:12.506Z,5.50
2022-11-26T23:54:46.946Z,5.50
2022-11-26T23:57:20.816Z,5.50
2022-11-26T23:59:55.313Z,5.50
